Aviation Digital Data Service (ADDS)

Output produced by METARs form (2211 UTC 16 February 2019)
found at http://www.aviationweather.gov/metar/data/
 
Forecast for: EETN (TALLINN , EE)
Text: TAF EETN 161700Z 1618/1718 26015G25KT 9999 SCT020
Forecast period: 1800 UTC 16 February 2019 to 0100 UTC 17 February 2019
Forecast type: FROM: standard forecast or significant change
Winds: from the W (260 degrees) at 17 MPH (15 knots; 7.7 m/s)
gusting to 29 MPH (25 knots; 12.9 m/s)
Visibility: 6 or more miles 10+ km)
Ceiling: at least 12,000 feet AGL
Clouds: scattered clouds at 2000 feet AGL
Weather: no significant weather forecast for this period
Text: PROB30
Forecast period: 1800 to 2200 UTC 16 February 2019
Forecast type: TEMPORARY: The following changes expected for less than half the time period
Visibility: 2.49 miles (4.01 km)
Ceiling: 1000 feet AGL
Clouds: broken clouds at 1000 feet AGL
few clouds at 1500 feet AGL
Weather: RA BR  (moderate rain, mist)
Text: TEMPO 1618/1622 4000 RA BR BKN010 FEW015CB
Forecast period: 0100 to 1800 UTC 17 February 2019
Forecast type: BECOMING: Conditions expected to become as follows by 0300 UTC 17 February 2019
Winds: from the NW (310 degrees) at 16 MPH (14 knots; 7.2 m/s)
Visibility: 6 or more miles 10+ km)
Ceiling: at least 12,000 feet AGL
Clouds: scattered clouds at 2000 feet AGL
Weather: no significant weather forecast for this period